Time;durP1;ratioP1;P1;durP2;ratioP2;P2;SDS_P1;SDS_P2;PMS_P1;PMS_P2;Temp;Humidity;BMP_temperature;BMP_pressure;BME280_temperature;BME280_humidity;BME280_pressure;Samples;Min_cycle;Max_cycle;Signal;HPM_P1;HPM_P2
2021/05/27 00:00:36;;;;;;;28.58;15.90;;;18.80;87.20;;;;;;5083273;28;20069;-76
2021/05/27 00:03:02;;;;;;;23.48;15.32;;;18.80;87.40;;;;;;5071478;28;20024;-75
2021/05/27 00:05:28;;;;;;;25.45;15.05;;;18.70;87.40;;;;;;5072332;28;20036;-75
2021/05/27 00:07:55;;;;;;;21.67;13.55;;;18.70;87.60;;;;;;5071141;28;20040;-75
2021/05/27 00:10:25;;;;;;;19.67;13.40;;;18.60;87.40;;;;;;5071207;28;20082;-75
2021/05/27 00:12:52;;;;;;;24.27;13.88;;;18.50;87.40;;;;;;5072182;28;20479;-76
2021/05/27 00:15:20;;;;;;;22.40;13.65;;;18.50;87.30;;;;;;5071593;28;20139;-76
2021/05/27 00:17:46;;;;;;;20.10;14.00;;;18.40;87.90;;;;;;5072619;28;20059;-76
2021/05/27 00:20:14;;;;;;;19.17;13.68;;;18.40;87.60;;;;;;5071156;28;20025;-75
2021/05/27 00:22:40;;;;;;;19.83;13.55;;;18.30;87.50;;;;;;5070967;28;20027;-75
2021/05/27 00:25:07;;;;;;;19.17;13.38;;;18.30;87.50;;;;;;5073136;28;20024;-76
2021/05/27 00:27:33;;;;;;;19.38;13.90;;;18.20;87.50;;;;;;5071394;28;20075;-75
2021/05/27 00:29:59;;;;;;;22.73;13.48;;;18.20;87.50;;;;;;5072007;28;20390;-75
2021/05/27 00:32:25;;;;;;;18.08;12.63;;;18.20;87.70;;;;;;5083808;28;20036;-79
2021/05/27 00:34:50;;;;;;;21.73;13.27;;;18.10;87.90;;;;;;5071076;28;20028;-74
2021/05/27 00:37:17;;;;;;;18.58;13.85;;;18.10;88.00;;;;;;5086259;28;20024;-75
2021/05/27 00:39:42;;;;;;;19.75;13.20;;;18.00;88.20;;;;;;5072313;28;20028;-75
2021/05/27 00:42:08;;;;;;;20.55;13.80;;;17.90;88.70;;;;;;5070945;28;20415;-74
2021/05/27 00:44:34;;;;;;;19.50;13.52;;;17.90;89.10;;;;;;5082093;28;20033;-75
2021/05/27 00:47:02;;;;;;;17.67;13.68;;;17.80;89.50;;;;;;5072221;28;20024;-74
2021/05/27 00:49:29;;;;;;;21.35;13.57;;;17.80;89.80;;;;;;5071999;28;20036;-74
2021/05/27 00:51:55;;;;;;;16.92;12.77;;;17.80;89.90;;;;;;5071265;28;20032;-74
2021/05/27 00:54:21;;;;;;;19.88;14.07;;;17.80;89.90;;;;;;5084559;28;20110;-75
2021/05/27 00:56:49;;;;;;;18.88;12.07;;;17.80;90.00;;;;;;5071541;28;20028;-74
2021/05/27 00:59:15;;;;;;;16.30;11.85;;;17.70;90.00;;;;;;5076649;28;20028;-74
2021/05/27 01:01:42;;;;;;;17.52;11.73;;;17.70;90.20;;;;;;5086199;28;20024;-74
2021/05/27 01:04:08;;;;;;;18.08;11.32;;;17.70;90.10;;;;;;5075795;28;20111;-75
2021/05/27 01:06:33;;;;;;;19.77;11.15;;;17.70;90.10;;;;;;5075161;28;20542;-75
2021/05/27 01:09:01;;;;;;;15.07;10.57;;;17.70;90.00;;;;;;5075839;28;20028;-75
2021/05/27 01:11:26;;;;;;;14.30;9.98;;;17.70;90.30;;;;;;5074360;28;20028;-75
2021/05/27 01:13:52;;;;;;;15.65;9.45;;;17.70;89.90;;;;;;5087349;28;20078;-75
2021/05/27 01:16:21;;;;;;;12.27;8.43;;;17.70;89.70;;;;;;5076602;28;20055;-75
2021/05/27 01:18:47;;;;;;;11.63;8.32;;;17.60;89.30;;;;;;5074075;28;20449;-75
2021/05/27 01:21:14;;;;;;;10.73;7.40;;;17.70;89.20;;;;;;5078136;28;20382;-75
2021/05/27 01:23:40;;;;;;;11.40;7.90;;;17.60;88.90;;;;;;5074110;28;20028;-75
2021/05/27 01:26:12;;;;;;;12.75;8.18;;;17.60;88.80;;;;;;5074278;28;20028;-75
2021/05/27 01:28:41;;;;;;;11.63;6.93;;;17.60;88.60;;;;;;5073642;28;20374;-75
2021/05/27 01:31:09;;;;;;;10.40;7.38;;;17.60;88.50;;;;;;5075518;28;20046;-75
2021/05/27 01:33:34;;;;;;;10.23;7.15;;;17.60;88.30;;;;;;5074011;28;20151;-75
2021/05/27 01:36:01;;;;;;;9.15;6.97;;;17.60;88.40;;;;;;5074027;28;20111;-75
2021/05/27 01:38:29;;;;;;;8.52;6.82;;;17.50;88.30;;;;;;5075599;28;20498;-76
2021/05/27 01:40:58;;;;;;;11.63;7.25;;;17.50;88.20;;;;;;5075321;28;20025;-75
2021/05/27 01:43:24;;;;;;;14.27;9.20;;;17.50;88.30;;;;;;5073237;28;20090;-76
2021/05/27 01:45:50;;;;;;;16.40;8.55;;;17.40;88.50;;;;;;5074638;28;20048;-76
2021/05/27 01:48:16;;;;;;;14.57;9.57;;;17.40;88.60;;;;;;5073541;28;20048;-76
2021/05/27 01:50:44;;;;;;;20.35;10.05;;;17.40;89.20;;;;;;5086739;28;20024;-75
2021/05/27 01:53:10;;;;;;;14.85;9.30;;;17.30;89.30;;;;;;5075331;28;20134;-75
2021/05/27 01:55:44;;;;;;;12.25;8.98;;;17.20;89.60;;;;;;5074614;28;20047;-75
2021/05/27 01:58:11;;;;;;;18.30;10.60;;;17.20;90.00;;;;;;5074660;28;20055;-75
2021/05/27 02:00:37;;;;;;;18.35;10.02;;;17.10;90.10;;;;;;5074931;28;20034;-76
2021/05/27 02:03:03;;;;;;;14.95;10.63;;;17.00;90.20;;;;;;5074566;28;20300;-75
2021/05/27 02:05:30;;;;;;;17.38;9.80;;;17.00;90.40;;;;;;5072898;28;20112;-76
2021/05/27 02:07:56;;;;;;;19.23;10.80;;;16.90;90.50;;;;;;5073210;28;20474;-76
2021/05/27 02:10:22;;;;;;;17.58;9.85;;;16.90;90.70;;;;;;5074560;28;20029;-74
2021/05/27 02:12:48;;;;;;;16.38;10.32;;;16.80;90.80;;;;;;5074205;28;20025;-75
2021/05/27 02:15:14;;;;;;;15.38;10.43;;;16.80;91.10;;;;;;5072777;28;20040;-74
2021/05/27 02:17:40;;;;;;;18.50;9.95;;;16.80;91.20;;;;;;5072242;28;20028;-75
2021/05/27 02:20:07;;;;;;;17.92;10.75;;;16.90;91.40;;;;;;5073272;28;20028;-75
2021/05/27 02:22:33;;;;;;;16.77;9.85;;;16.90;91.50;;;;;;5072600;28;20035;-75
2021/05/27 02:24:59;;;;;;;17.20;10.48;;;16.90;91.70;;;;;;5073478;28;20107;-75
2021/05/27 02:27:25;;;;;;;18.42;10.68;;;16.90;91.80;;;;;;5074829;28;20112;-75
2021/05/27 02:29:51;;;;;;;26.25;11.30;;;17.00;91.80;;;;;;5072872;28;20110;-75
2021/05/27 02:32:18;;;;;;;20.15;10.85;;;16.90;91.70;;;;;;5072487;28;20032;-75
2021/05/27 02:34:44;;;;;;;17.67;10.43;;;17.00;91.80;;;;;;5072367;28;20028;-75
2021/05/27 02:37:10;;;;;;;26.45;10.90;;;17.00;91.90;;;;;;5074226;28;20036;-75
2021/05/27 02:39:35;;;;;;;16.70;10.90;;;17.10;92.00;;;;;;5073060;28;20033;-75
2021/05/27 02:42:01;;;;;;;19.33;10.75;;;17.20;92.10;;;;;;5073431;28;20036;-79
2021/05/27 02:44:27;;;;;;;29.83;12.88;;;17.30;92.10;;;;;;5073674;28;20029;-75
2021/05/27 02:46:53;;;;;;;16.88;11.65;;;17.40;92.00;;;;;;5073430;28;20522;-75
2021/05/27 02:49:18;;;;;;;15.15;10.68;;;17.50;91.90;;;;;;5073702;28;20028;-75
2021/05/27 02:51:44;;;;;;;23.70;13.23;;;17.60;91.60;;;;;;5077600;28;20077;-75
2021/05/27 02:54:10;;;;;;;27.67;12.00;;;17.70;91.40;;;;;;5073582;28;20040;-75
2021/05/27 02:56:36;;;;;;;22.85;12.38;;;17.80;91.30;;;;;;5073016;28;20033;-76
2021/05/27 02:59:02;;;;;;;23.13;12.10;;;17.80;91.10;;;;;;5078085;28;20028;-75
2021/05/27 03:01:28;;;;;;;17.50;12.00;;;17.90;91.00;;;;;;5087472;28;20367;-76
2021/05/27 03:03:53;;;;;;;18.85;11.20;;;17.90;91.00;;;;;;5086918;28;20027;-76
2021/05/27 03:06:19;;;;;;;29.67;12.32;;;17.90;91.00;;;;;;5082502;28;20033;-73
2021/05/27 03:08:45;;;;;;;17.17;10.20;;;18.10;91.00;;;;;;5079300;28;20792;-73
2021/05/27 03:11:11;;;;;;;19.75;10.38;;;18.10;90.80;;;;;;5073914;28;20036;-75
2021/05/27 03:13:36;;;;;;;12.05;9.23;;;18.30;90.60;;;;;;5073276;28;20025;-74
2021/05/27 03:16:03;;;;;;;19.55;10.18;;;18.40;90.30;;;;;;5075083;28;20514;-78
2021/05/27 03:18:30;;;;;;;16.95;10.38;;;18.70;90.40;;;;;;5106239;28;20043;-80
2021/05/27 03:20:57;;;;;;;16.30;10.32;;;19.10;90.40;;;;;;5092421;28;20063;-77
2021/05/27 03:23:23;;;;;;;14.77;9.55;;;19.50;89.50;;;;;;5085859;28;20073;-74
2021/05/27 03:25:48;;;;;;;13.25;9.70;;;19.80;87.90;;;;;;5096892;28;20103;-74
2021/05/27 03:28:14;;;;;;;16.77;10.40;;;20.00;85.30;;;;;;5091412;28;20047;-79
2021/05/27 03:30:39;;;;;;;21.73;11.32;;;20.10;83.10;;;;;;5086929;28;20466;-75
2021/05/27 03:33:05;;;;;;;14.25;10.13;;;20.10;82.30;;;;;;5097657;28;20478;-78
2021/05/27 03:35:31;;;;;;;15.88;10.25;;;20.10;82.30;;;;;;5103649;28;20030;-77
2021/05/27 03:37:57;;;;;;;21.38;11.68;;;20.10;81.90;;;;;;5095863;28;20375;-74
2021/05/27 03:40:24;;;;;;;16.17;11.10;;;20.10;81.60;;;;;;5103440;28;20034;-75
2021/05/27 03:42:52;;;;;;;18.52;11.25;;;20.10;81.50;;;;;;5090046;28;20471;-76
2021/05/27 03:45:26;;;;;;;14.75;10.50;;;20.10;81.40;;;;;;5106788;27;20019;-77
2021/05/27 03:47:53;;;;;;;19.10;11.07;;;20.00;81.00;;;;;;5094543;28;20540;-76
2021/05/27 03:50:21;;;;;;;16.67;10.98;;;20.00;81.30;;;;;;5093063;28;20527;-76
2021/05/27 03:52:47;;;;;;;16.63;11.82;;;20.00;81.30;;;;;;5097075;28;20111;-75
2021/05/27 03:55:15;;;;;;;23.50;17.40;;;20.10;81.00;;;;;;5095632;28;20103;-75
2021/05/27 03:57:43;;;;;;;19.15;12.07;;;20.10;81.00;;;;;;5094549;28;20016;-75
2021/05/27 04:02:57;;;;;;;19.40;12.43;;;20.20;81.60;;;;;;5100098;28;20435;-75
2021/05/27 04:08:08;;;;;;;16.42;11.80;;;20.50;82.50;;;;;;5091863;28;20038;-75
2021/05/27 04:10:34;;;;;;;27.10;12.13;;;20.80;82.30;;;;;;5082144;28;20417;-75
2021/05/27 04:13:00;;;;;;;19.27;11.20;;;21.10;81.40;;;;;;5088808;28;20031;-76
2021/05/27 04:15:32;;;;;;;20.90;11.45;;;21.60;80.40;;;;;;5095057;28;20454;-75
2021/05/27 04:18:04;;;;;;;17.92;10.32;;;22.20;78.70;;;;;;5083612;28;20069;-76
2021/05/27 04:20:58;;;;;;;15.60;10.32;;;22.80;77.50;;;;;;5078704;28;20069;-75
2021/05/27 04:23:39;;;;;;;16.00;10.35;;;23.50;75.60;;;;;;5080614;28;20119;-76
2021/05/27 04:26:13;;;;;;;18.30;9.88;;;24.00;72.70;;;;;;5078935;28;20033;-77
2021/05/27 04:28:40;;;;;;;16.20;10.00;;;24.60;70.70;;;;;;5070664;28;20036;-78
2021/05/27 04:31:10;;;;;;;14.82;11.30;;;25.00;69.30;;;;;;5097255;28;20536;-77
2021/05/27 04:33:43;;;;;;;16.80;11.80;;;25.10;66.90;;;;;;5091386;28;20026;-75
2021/05/27 04:36:14;;;;;;;35.67;25.38;;;25.30;66.50;;;;;;5104527;28;20081;-76
2021/05/27 04:38:41;;;;;;;33.40;21.58;;;25.60;64.90;;;;;;5108943;28;20037;-76
2021/05/27 04:41:07;;;;;;;34.58;23.23;;;25.60;63.30;;;;;;5108352;28;20023;-76
2021/05/27 04:43:34;;;;;;;29.92;23.20;;;25.60;62.80;;;;;;5103607;28;20530;-75
2021/05/27 04:46:01;;;;;;;39.65;26.13;;;25.60;62.30;;;;;;5108545;28;20020;-77
2021/05/27 04:48:27;;;;;;;40.25;25.55;;;25.70;62.10;;;;;;5095831;28;20028;-77
2021/05/27 04:50:53;;;;;;;47.75;25.10;;;25.80;62.30;;;;;;5104462;28;20130;-81
2021/05/27 04:53:20;;;;;;;34.55;22.02;;;26.10;62.60;;;;;;5075784;28;20432;-69
2021/05/27 04:55:46;;;;;;;40.10;23.50;;;26.30;62.10;;;;;;5093659;28;20020;-69
2021/05/27 04:58:12;;;;;;;47.75;25.67;;;26.70;61.20;;;;;;5092369;28;20024;-69
2021/05/27 05:00:38;;;;;;;40.83;22.85;;;26.90;60.70;;;;;;5095952;28;20024;-70
2021/05/27 05:03:04;;;;;;;27.88;16.10;;;27.30;60.40;;;;;;5090175;28;20031;-69
2021/05/27 05:05:33;;;;;;;24.75;14.65;;;27.70;59.40;;;;;;5083235;28;20027;-70
2021/05/27 05:07:58;;;;;;;26.00;14.05;;;27.90;58.20;;;;;;5101180;28;20035;-70
2021/05/27 05:10:26;;;;;;;28.50;13.80;;;28.20;57.90;;;;;;5112899;28;20036;-69
2021/05/27 05:12:53;;;;;;;23.65;11.25;;;28.50;57.20;;;;;;5094152;28;20031;-66
2021/05/27 05:15:26;;;;;;;18.95;11.02;;;28.70;56.40;;;;;;5103007;28;20427;-69
2021/05/27 05:17:57;;;;;;;41.92;11.55;;;29.00;55.20;;;;;;5105364;27;20027;-69
2021/05/27 05:20:29;;;;;;;10.88;7.63;;;29.40;54.80;;;;;;5101825;28;20027;-69
2021/05/27 05:22:55;;;;;;;12.20;7.40;;;29.80;52.70;;;;;;5099737;28;20417;-70
2021/05/27 05:25:23;;;;;;;13.57;7.53;;;30.00;52.30;;;;;;5106024;28;20031;-69
2021/05/27 05:27:49;;;;;;;13.13;7.60;;;30.20;51.60;;;;;;5097502;27;20042;-71
2021/05/27 05:30:16;;;;;;;14.43;8.50;;;30.50;51.60;;;;;;5104702;28;20024;-70
2021/05/27 05:32:43;;;;;;;14.88;8.93;;;30.70;51.00;;;;;;5097308;28;20040;-69
2021/05/27 05:35:10;;;;;;;12.45;8.10;;;30.80;50.50;;;;;;5100695;28;20347;-69
2021/05/27 05:37:37;;;;;;;11.73;8.85;;;30.80;50.50;;;;;;5096817;28;20463;-69
2021/05/27 05:40:04;;;;;;;11.50;8.20;;;31.00;50.20;;;;;;5095184;28;20032;-70
2021/05/27 05:42:30;;;;;;;12.52;8.50;;;30.90;50.30;;;;;;5096093;28;20032;-69
2021/05/27 05:44:56;;;;;;;12.85;8.63;;;31.00;50.10;;;;;;5088057;28;20139;-67
2021/05/27 05:47:22;;;;;;;12.55;7.80;;;31.30;50.00;;;;;;5094334;28;20024;-67
2021/05/27 05:49:47;;;;;;;11.50;7.97;;;31.30;49.80;;;;;;5092168;28;20116;-67
2021/05/27 05:52:13;;;;;;;9.10;7.03;;;31.40;49.00;;;;;;5092912;28;20437;-68
2021/05/27 05:54:41;;;;;;;14.43;7.30;;;31.40;48.80;;;;;;5080242;28;20153;-67
2021/05/27 05:57:07;;;;;;;14.73;7.68;;;31.50;49.00;;;;;;5082293;28;20350;-68
2021/05/27 05:59:33;;;;;;;9.18;7.68;;;31.80;49.00;;;;;;5088065;28;20032;-68
2021/05/27 06:02:00;;;;;;;12.43;7.57;;;32.00;48.00;;;;;;5089737;28;20024;-70
2021/05/27 06:04:26;;;;;;;11.02;7.65;;;31.90;48.40;;;;;;5076030;28;20024;-72
2021/05/27 06:06:51;;;;;;;9.63;7.35;;;32.10;48.10;;;;;;5092463;28;20040;-68
2021/05/27 06:09:18;;;;;;;8.23;7.38;;;32.20;48.30;;;;;;5110835;28;20028;-68
2021/05/27 06:11:43;;;;;;;11.52;7.47;;;32.30;47.40;;;;;;5112447;28;20023;-68
2021/05/27 06:14:09;;;;;;;13.13;7.60;;;32.50;47.30;;;;;;5108101;28;20077;-68
2021/05/27 06:16:35;;;;;;;8.90;6.03;;;32.60;47.50;;;;;;5107393;28;20136;-67
2021/05/27 06:19:01;;;;;;;30.98;26.27;;;32.60;46.30;;;;;;5106412;28;20135;-68
2021/05/27 06:21:26;;;;;;;13.40;10.90;;;32.50;47.00;;;;;;5102207;28;20054;-68
2021/05/27 06:23:52;;;;;;;30.42;26.30;;;32.50;46.70;;;;;;5104513;28;20024;-68
2021/05/27 06:26:18;;;;;;;34.78;31.10;;;32.40;47.70;;;;;;5102732;28;20016;-69
2021/05/27 06:28:44;;;;;;;34.95;26.25;;;32.10;47.70;;;;;;5099074;28;20036;-68
2021/05/27 06:31:09;;;;;;;49.08;31.33;;;32.20;48.60;;;;;;5076007;28;20028;-68
2021/05/27 06:33:36;;;;;;;35.70;31.85;;;32.40;48.80;;;;;;5079403;28;20044;-68
2021/05/27 06:36:03;;;;;;;33.90;30.35;;;32.50;48.70;;;;;;5090252;28;20043;-68
2021/05/27 06:38:29;;;;;;;30.42;23.73;;;32.60;48.40;;;;;;5084325;28;20032;-68
2021/05/27 06:40:55;;;;;;;28.50;18.65;;;32.70;48.20;;;;;;5096374;28;20051;-68
2021/05/27 06:43:20;;;;;;;19.77;9.45;;;33.00;48.00;;;;;;5106660;28;20069;-68
2021/05/27 06:45:46;;;;;;;21.67;13.48;;;33.30;47.20;;;;;;5096100;28;20020;-68
2021/05/27 06:48:13;;;;;;;24.92;15.15;;;33.50;46.80;;;;;;5090143;28;20146;-68
2021/05/27 06:50:40;;;;;;;10.00;7.95;;;33.70;46.80;;;;;;5097749;28;20027;-68
2021/05/27 06:53:15;;;;;;;10.18;5.93;;;33.90;46.10;;;;;;5098773;28;20024;-68
2021/05/27 06:55:42;;;;;;;14.25;11.05;;;34.10;45.20;;;;;;5094872;28;20035;-68
2021/05/27 06:58:09;;;;;;;22.83;14.10;;;34.00;45.90;;;;;;5092970;28;20024;-68
2021/05/27 07:00:36;;;;;;;18.05;11.88;;;34.00;47.00;;;;;;5098961;28;20043;-67
2021/05/27 07:03:04;;;;;;;8.65;5.80;;;34.20;46.80;;;;;;5093453;28;20046;-68
2021/05/27 07:05:30;;;;;;;20.50;13.50;;;34.20;45.70;;;;;;5085269;28;20028;-68
2021/05/27 07:07:57;;;;;;;15.68;7.70;;;34.50;46.40;;;;;;5073152;28;20020;-68
2021/05/27 07:10:23;;;;;;;12.15;6.22;;;34.40;46.20;;;;;;5073093;28;20486;-68
2021/05/27 07:12:54;;;;;;;27.38;24.52;;;34.50;45.30;;;;;;5071703;28;20425;-68
2021/05/27 07:15:21;;;;;;;24.35;19.30;;;34.60;45.70;;;;;;5072877;28;20158;-68
2021/05/27 07:17:48;;;;;;;33.03;17.55;;;34.50;45.90;;;;;;5071532;28;20024;-68
2021/05/27 07:20:15;;;;;;;21.55;15.35;;;34.50;45.70;;;;;;5073474;28;20230;-68
2021/05/27 07:22:40;;;;;;;27.10;20.40;;;34.30;45.40;;;;;;5072912;28;20027;-68
2021/05/27 07:25:07;;;;;;;29.30;20.13;;;34.20;45.40;;;;;;5072558;28;20024;-68
2021/05/27 07:27:33;;;;;;;32.50;28.77;;;34.20;45.60;;;;;;5071676;28;20024;-68
2021/05/27 07:30:00;;;;;;;29.27;24.02;;;34.00;45.50;;;;;;5073177;28;20032;-68
2021/05/27 07:32:26;;;;;;;24.15;16.73;;;33.90;46.30;;;;;;5072404;28;20036;-70
2021/05/27 07:34:52;;;;;;;17.02;14.52;;;33.90;46.60;;;;;;5088559;28;20043;-68
2021/05/27 07:37:18;;;;;;;16.40;14.48;;;34.00;46.50;;;;;;5072791;28;20047;-68
2021/05/27 07:39:43;;;;;;;21.25;15.48;;;34.00;47.30;;;;;;5072335;28;20028;-70
2021/05/27 07:42:10;;;;;;;16.35;14.60;;;34.00;47.20;;;;;;5072439;28;20378;-68
2021/05/27 07:44:36;;;;;;;26.65;17.17;;;34.20;46.10;;;;;;5072225;28;20054;-68
2021/05/27 07:47:02;;;;;;;17.65;11.50;;;34.20;46.10;;;;;;5070742;28;20020;-68
2021/05/27 07:49:28;;;;;;;19.25;16.83;;;34.30;45.50;;;;;;5072952;28;20466;-69
2021/05/27 07:51:58;;;;;;;18.85;13.27;;;34.20;45.60;;;;;;5071254;28;20028;-69
2021/05/27 07:54:24;;;;;;;17.35;10.85;;;34.20;45.70;;;;;;5072981;28;20059;-69
2021/05/27 07:56:50;;;;;;;18.70;9.07;;;34.00;46.20;;;;;;5072108;28;20093;-69
2021/05/27 07:59:16;;;;;;;14.00;7.78;;;34.30;46.20;;;;;;5072680;28;20070;-69
2021/05/27 08:01:42;;;;;;;24.00;17.00;;;34.40;45.40;;;;;;5072948;28;20378;-69
2021/05/27 08:04:09;;;;;;;16.38;11.57;;;34.60;46.30;;;;;;5072236;28;20097;-69
2021/05/27 08:06:35;;;;;;;19.35;12.13;;;34.80;46.30;;;;;;5072266;28;20121;-69
2021/05/27 08:09:02;;;;;;;22.58;10.70;;;35.00;46.30;;;;;;5072649;28;20032;-69
2021/05/27 08:11:28;;;;;;;20.38;9.40;;;34.90;45.80;;;;;;5072444;28;20352;-69
2021/05/27 08:13:53;;;;;;;23.50;12.73;;;34.70;45.10;;;;;;5072477;28;20027;-69
2021/05/27 08:16:19;;;;;;;49.53;43.13;;;34.80;45.70;;;;;;5072018;28;20528;-69
2021/05/27 08:18:45;;;;;;;40.83;34.30;;;34.70;45.80;;;;;;5071930;28;20771;-69
2021/05/27 08:21:11;;;;;;;23.17;15.80;;;34.50;45.60;;;;;;5072064;28;20029;-69
2021/05/27 08:23:37;;;;;;;14.98;10.35;;;34.10;46.00;;;;;;5071259;28;20017;-69
2021/05/27 08:26:03;;;;;;;8.75;5.90;;;34.20;46.20;;;;;;5072261;28;20536;-69
2021/05/27 08:28:28;;;;;;;8.27;5.90;;;34.20;46.10;;;;;;5071575;28;20033;-68
2021/05/27 08:30:54;;;;;;;9.60;5.65;;;34.20;46.70;;;;;;5072042;28;20036;-68
2021/05/27 08:33:21;;;;;;;11.27;6.63;;;34.50;47.10;;;;;;5072093;28;20126;-68
2021/05/27 08:35:47;;;;;;;7.25;5.20;;;34.60;45.70;;;;;;5070969;28;20020;-68
2021/05/27 08:38:13;;;;;;;13.88;4.90;;;34.70;45.70;;;;;;5071827;28;20112;-67
2021/05/27 08:40:39;;;;;;;7.13;5.00;;;34.50;44.90;;;;;;5071686;28;20017;-68
2021/05/27 08:43:05;;;;;;;12.70;4.97;;;34.00;44.80;;;;;;5072179;28;20032;-68
2021/05/27 08:45:36;;;;;;;7.43;4.32;;;33.90;45.20;;;;;;5071628;28;20536;-68
2021/05/27 08:48:03;;;;;;;7.28;4.53;;;34.10;45.10;;;;;;5071377;28;20024;-68
2021/05/27 08:50:40;;;;;;;8.57;4.40;;;34.50;44.60;;;;;;5071993;28;20032;-69
2021/05/27 08:53:05;;;;;;;15.40;7.10;;;34.90;44.30;;;;;;5071944;28;20027;-70
2021/05/27 08:55:32;;;;;;;10.65;6.63;;;35.20;43.80;;;;;;5070607;28;20025;-70
2021/05/27 08:57:58;;;;;;;14.10;8.25;;;34.90;43.10;;;;;;5070897;28;20423;-69
2021/05/27 09:00:24;;;;;;;14.82;12.82;;;34.80;43.50;;;;;;5071863;28;20064;-69
2021/05/27 09:02:57;;;;;;;13.20;11.25;;;34.50;43.80;;;;;;5072044;28;20025;-69
2021/05/27 09:05:24;;;;;;;14.82;10.27;;;33.70;45.00;;;;;;5070847;28;20462;-69
2021/05/27 09:07:50;;;;;;;11.30;6.40;;;32.90;45.40;;;;;;5071579;28;20066;-68
2021/05/27 09:10:16;;;;;;;7.45;4.90;;;32.20;46.00;;;;;;5071691;28;20040;-69
2021/05/27 09:12:42;;;;;;;7.88;6.28;;;32.00;46.90;;;;;;5071483;28;20028;-69
2021/05/27 09:15:26;;;;;;;11.45;6.47;;;31.60;47.10;;;;;;5072120;28;20025;-69
2021/05/27 09:17:53;;;;;;;13.13;7.28;;;31.20;47.60;;;;;;5070935;28;20067;-69
2021/05/27 09:20:26;;;;;;;8.15;6.32;;;31.20;49.00;;;;;;5074419;28;20043;-69
2021/05/27 09:23:13;;;;;;;7.33;5.40;;;31.50;48.80;;;;;;5075231;28;20501;-68
2021/05/27 09:25:41;;;;;;;10.77;8.95;;;31.90;48.10;;;;;;5075478;28;20016;-68
2021/05/27 09:28:09;;;;;;;31.60;27.80;;;32.40;48.90;;;;;;5074945;28;20028;-68
2021/05/27 09:30:46;;;;;;;16.38;10.00;;;32.50;48.30;;;;;;5073701;28;20040;-68
2021/05/27 09:33:13;;;;;;;10.57;7.93;;;32.20;47.40;;;;;;5076984;28;20024;-68
2021/05/27 09:35:39;;;;;;;8.23;5.40;;;31.70;47.70;;;;;;5075172;28;20027;-68
2021/05/27 09:38:05;;;;;;;8.15;5.45;;;31.20;48.20;;;;;;5074913;28;20024;-68
2021/05/27 09:40:36;;;;;;;15.20;5.40;;;30.80;48.60;;;;;;5073574;28;20021;-69
2021/05/27 09:43:04;;;;;;;8.75;7.13;;;30.40;50.20;;;;;;5075424;28;20035;-68
2021/05/27 09:45:32;;;;;;;9.32;7.65;;;30.10;50.20;;;;;;5074560;28;20087;-68
2021/05/27 09:47:58;;;;;;;11.98;8.65;;;29.70;50.40;;;;;;5082097;28;20025;-68
2021/05/27 09:50:31;;;;;;;11.93;9.93;;;29.20;51.30;;;;;;5074339;28;20466;-68
2021/05/27 09:53:12;;;;;;;11.20;8.15;;;28.70;52.40;;;;;;5073884;28;20029;-68
2021/05/27 09:55:38;;;;;;;11.70;10.15;;;28.40;53.10;;;;;;5074449;28;20103;-68
2021/05/27 09:58:09;;;;;;;12.50;8.90;;;28.30;53.50;;;;;;5074587;28;20056;-69
2021/05/27 10:00:35;;;;;;;14.50;9.45;;;28.70;53.30;;;;;;5072845;28;20024;-68
2021/05/27 10:03:31;;;;;;;10.98;6.53;;;28.80;53.00;;;;;;5074390;28;20096;-68
2021/05/27 10:05:59;;;;;;;6.55;3.97;;;28.90;52.70;;;;;;5074419;28;20090;-68
2021/05/27 10:08:25;;;;;;;8.13;4.53;;;28.60;52.10;;;;;;5072685;28;20429;-70
2021/05/27 10:10:52;;;;;;;8.13;5.53;;;28.30;52.60;;;;;;5073392;28;20060;-69
2021/05/27 10:13:24;;;;;;;7.75;5.10;;;28.00;53.40;;;;;;5074587;28;20028;-68
2021/05/27 10:15:49;;;;;;;5.60;3.90;;;27.80;54.30;;;;;;5074809;28;20348;-68
2021/05/27 10:18:20;;;;;;;8.05;5.10;;;27.70;54.20;;;;;;5073779;28;20047;-68
2021/05/27 10:20:47;;;;;;;5.88;4.80;;;27.70;54.90;;;;;;5073802;28;20032;-68
2021/05/27 10:23:14;;;;;;;12.30;8.68;;;28.00;55.20;;;;;;5072382;28;20489;-69
2021/05/27 10:25:40;;;;;;;14.82;9.60;;;28.60;54.70;;;;;;5074577;28;20482;-68
2021/05/27 10:28:15;;;;;;;12.25;5.53;;;28.90;53.80;;;;;;5072491;28;20466;-68
2021/05/27 10:30:43;;;;;;;8.57;4.60;;;28.80;52.80;;;;;;5071413;28;20123;-68
2021/05/27 10:33:16;;;;;;;5.88;4.07;;;29.10;53.30;;;;;;5073598;28;20035;-68
2021/05/27 10:35:57;;;;;;;6.18;4.10;;;29.70;53.30;;;;;;5073626;28;20073;-68
2021/05/27 10:38:47;;;;;;;15.55;8.02;;;29.80;53.00;;;;;;5073380;28;20090;-68
2021/05/27 10:41:15;;;;;;;9.52;5.45;;;29.70;52.90;;;;;;5072722;28;20033;-68
2021/05/27 10:43:59;;;;;;;8.02;4.43;;;29.70;52.20;;;;;;5073540;28;20017;-68
2021/05/27 10:46:26;;;;;;;7.20;3.70;;;29.90;51.70;;;;;;5073631;28;20028;-70
2021/05/27 10:48:52;;;;;;;7.05;3.72;;;30.30;50.90;;;;;;5073607;28;20028;-68
2021/05/27 10:51:33;;;;;;;4.43;3.17;;;30.60;50.20;;;;;;5073739;28;20485;-68
2021/05/27 10:54:04;;;;;;;9.27;4.50;;;30.80;49.00;;;;;;5073305;28;20044;-67
2021/05/27 10:56:33;;;;;;;4.90;3.33;;;30.80;49.30;;;;;;5073177;28;20493;-68
2021/05/27 10:58:59;;;;;;;4.15;3.10;;;30.90;48.90;;;;;;5073412;28;20040;-68
2021/05/27 11:01:31;;;;;;;7.53;3.53;;;30.90;49.30;;;;;;5073413;28;20024;-68
2021/05/27 11:03:58;;;;;;;7.35;3.70;;;30.50;49.10;;;;;;5071827;28;20020;-67
2021/05/27 11:06:29;;;;;;;6.55;3.65;;;29.90;49.60;;;;;;5072001;28;20101;-68
2021/05/27 11:09:10;;;;;;;6.85;3.53;;;29.20;50.00;;;;;;5072993;28;20104;-67
2021/05/27 11:11:42;;;;;;;12.85;4.40;;;28.60;50.60;;;;;;5071968;28;20538;-67
2021/05/27 11:14:24;;;;;;;8.15;3.90;;;28.10;51.50;;;;;;5073619;28;20059;-67
2021/05/27 11:22:38;;;;;;;13.23;4.10;;;27.00;53.50;;;;;;5072668;28;20028;-67
2021/05/27 11:25:16;;;;;;;;;;;26.90;53.90;;;;;;5073681;28;20034;-67
2021/05/27 11:27:52;;;;;;;9.77;3.97;;;26.80;53.70;;;;;;5072724;28;19927;-67
2021/05/27 11:30:18;;;;;;;8.40;4.38;;;26.80;54.20;;;;;;5073213;28;20025;-67
2021/05/27 11:32:48;;;;;;;10.02;4.50;;;26.80;54.70;;;;;;5070976;28;20043;-67
2021/05/27 11:35:16;;;;;;;7.30;4.25;;;26.80;55.60;;;;;;5073276;28;20025;-68
2021/05/27 11:37:43;;;;;;;8.07;4.20;;;26.90;55.50;;;;;;5072782;28;20068;-68
2021/05/27 11:40:11;;;;;;;5.60;3.88;;;27.00;55.10;;;;;;5072147;28;20051;-68
2021/05/27 11:42:37;;;;;;;10.30;4.78;;;27.20;54.90;;;;;;5071850;28;20028;-68
2021/05/27 11:45:06;;;;;;;7.35;6.05;;;27.50;54.50;;;;;;5075390;28;20029;-68
2021/05/27 11:47:32;;;;;;;8.82;5.50;;;27.60;53.90;;;;;;5073121;28;20056;-68
2021/05/27 11:50:09;;;;;;;11.73;6.00;;;27.60;53.70;;;;;;5072310;28;20028;-68
2021/05/27 11:52:35;;;;;;;21.38;16.75;;;27.40;55.10;;;;;;5071973;28;20048;-68
2021/05/27 11:55:01;;;;;;;15.52;10.70;;;27.30;55.10;;;;;;5071736;28;20032;-67
2021/05/27 11:57:44;;;;;;;10.00;6.90;;;27.20;54.80;;;;;;5071243;28;20052;-67
2021/05/27 12:00:13;;;;;;;15.70;9.02;;;27.00;54.80;;;;;;5072684;28;20051;-68
2021/05/27 12:02:50;;;;;;;17.00;10.57;;;26.80;55.40;;;;;;5070701;28;20029;-67
2021/05/27 12:05:19;;;;;;;19.13;13.68;;;26.60;56.60;;;;;;5072174;28;20031;-67
2021/05/27 12:08:01;;;;;;;12.88;7.53;;;26.60;57.70;;;;;;5072254;28;20047;-67
2021/05/27 12:10:29;;;;;;;9.38;6.00;;;26.50;58.10;;;;;;5072166;28;20526;-68
2021/05/27 12:12:55;;;;;;;8.73;5.40;;;26.40;58.30;;;;;;5072091;28;20032;-67
2021/05/27 12:15:22;;;;;;;15.52;7.03;;;26.30;58.50;;;;;;5070935;28;20020;-67
2021/05/27 12:17:49;;;;;;;12.43;8.52;;;26.20;59.20;;;;;;5072021;28;20021;-68
2021/05/27 12:20:19;;;;;;;11.50;7.88;;;26.20;60.30;;;;;;5071388;28;20492;-67
2021/05/27 12:22:48;;;;;;;15.02;10.00;;;26.00;61.20;;;;;;5071710;28;20074;-67
2021/05/27 12:25:15;;;;;;;19.23;10.05;;;26.00;62.80;;;;;;5071477;28;20032;-67
2021/05/27 12:27:46;;;;;;;14.68;10.20;;;25.90;64.40;;;;;;5072241;28;20024;-67
2021/05/27 12:30:23;;;;;;;18.35;10.10;;;25.80;65.50;;;;;;5072076;28;20475;-67
2021/05/27 12:32:50;;;;;;;14.98;9.57;;;25.60;65.90;;;;;;5071694;28;20036;-67
2021/05/27 12:35:20;;;;;;;12.75;9.82;;;25.40;67.10;;;;;;5070728;28;20082;-68
2021/05/27 12:37:47;;;;;;;14.48;9.60;;;25.20;68.30;;;;;;5070817;28;20036;-68
2021/05/27 12:40:18;;;;;;;12.05;8.40;;;25.10;69.00;;;;;;5072222;28;20017;-68
2021/05/27 12:42:43;;;;;;;12.25;8.30;;;25.20;70.00;;;;;;5070217;28;20024;-68
2021/05/27 12:45:28;;;;;;;11.93;8.70;;;25.20;69.40;;;;;;5071412;28;20109;-68
2021/05/27 12:48:17;;;;;;;16.25;8.48;;;25.20;69.40;;;;;;5072311;28;20029;-68